createdAt,value
2022-10-15T00:00:18.146Z,99525.31
2022-10-15T00:02:47.342Z,99533.66
2022-10-15T00:05:16.673Z,99517.91
2022-10-15T00:07:45.915Z,99517.53
2022-10-15T00:10:17.210Z,99496.31
2022-10-15T00:12:46.706Z,99502.50
2022-10-15T00:15:16.138Z,99476.59
2022-10-15T00:17:45.326Z,99475.50
2022-10-15T00:20:14.951Z,99462.22
2022-10-15T00:22:44.225Z,99442.84
2022-10-15T00:25:13.374Z,99472.41
2022-10-15T00:27:43.908Z,99475.75
2022-10-15T00:30:14.537Z,99472.47
2022-10-15T00:32:43.786Z,99471.00
2022-10-15T00:35:12.937Z,99464.69
2022-10-15T00:37:44.198Z,99484.78
2022-10-15T00:40:15.743Z,99479.50
2022-10-15T00:42:46.264Z,99479.31
2022-10-15T00:45:17.514Z,99478.09
2022-10-15T00:47:50.428Z,99466.59
2022-10-15T00:50:24.775Z,99444.84
2022-10-15T00:53:02.350Z,99454.22
2022-10-15T00:55:34.072Z,99454.50
2022-10-15T00:58:10.418Z,99444.47
2022-10-15T01:00:39.645Z,99440.88
2022-10-15T01:03:09.381Z,99430.75
2022-10-15T01:05:39.852Z,99418.56
2022-10-15T01:08:13.314Z,99417.41
2022-10-15T01:10:50.182Z,99415.41
2022-10-15T01:13:34.918Z,99400.22
2022-10-15T01:18:55.756Z,99384.13
2022-10-15T01:21:33.941Z,99366.81
2022-10-15T01:24:48.421Z,99357.66
2022-10-15T01:27:27.496Z,99360.97
2022-10-15T01:30:26.776Z,99346.84
2022-10-15T01:33:14.835Z,99326.56
2022-10-15T01:35:51.780Z,99332.53
2022-10-15T01:38:38.350Z,99320.50
2022-10-15T01:41:15.664Z,99308.91
2022-10-15T01:43:51.789Z,99291.94
2022-10-15T01:46:54.023Z,99295.69
2022-10-15T01:49:30.082Z,99284.06
2022-10-15T01:52:03.469Z,99290.63
2022-10-15T01:54:33.080Z,99288.03
2022-10-15T01:57:04.312Z,99279.19
2022-10-15T01:59:35.239Z,99274.84
2022-10-15T02:02:07.557Z,99276.53
2022-10-15T02:04:38.315Z,99265.41
2022-10-15T02:07:10.762Z,99262.25
2022-10-15T02:09:52.459Z,99265.44
2022-10-15T02:12:39.290Z,99255.88
2022-10-15T02:15:17.809Z,99242.69
2022-10-15T02:18:02.434Z,99242.78
2022-10-15T02:20:41.724Z,99235.56
2022-10-15T02:23:19.732Z,99232.88
2022-10-15T02:25:53.394Z,99226.31
2022-10-15T02:28:25.990Z,99233.00
2022-10-15T02:30:58.550Z,99213.81
2022-10-15T02:33:31.191Z,99223.22
2022-10-15T02:36:01.270Z,99211.22
2022-10-15T02:38:34.869Z,99197.28
2022-10-15T02:41:04.599Z,99205.38
2022-10-15T02:43:33.796Z,99205.16
2022-10-15T02:46:02.980Z,99206.69
2022-10-15T02:48:33.651Z,99201.78
2022-10-15T02:51:02.823Z,99201.06
2022-10-15T02:53:35.329Z,99192.34
2022-10-15T02:56:06.636Z,99201.47
2022-10-15T02:58:35.989Z,99198.03
2022-10-15T03:01:06.156Z,99183.19
2022-10-15T03:03:37.176Z,99198.75
2022-10-15T03:06:07.773Z,99209.91
2022-10-15T03:08:37.103Z,99228.44
2022-10-15T03:11:06.961Z,99241.44
2022-10-15T03:13:38.465Z,99256.44
2022-10-15T03:16:09.593Z,99247.81
2022-10-15T03:18:41.346Z,99195.31
2022-10-15T03:21:12.554Z,99148.16
2022-10-15T03:23:42.325Z,99095.22
2022-10-15T03:26:19.815Z,99139.84
2022-10-15T03:28:49.190Z,99139.72
2022-10-15T03:31:31.511Z,99153.47
2022-10-15T03:34:05.551Z,99134.09
2022-10-15T03:36:35.020Z,99118.41
2022-10-15T03:39:08.452Z,99159.75
2022-10-15T03:41:38.951Z,99208.34
2022-10-15T03:44:10.108Z,99215.78
2022-10-15T03:46:44.269Z,99211.09
2022-10-15T03:49:15.307Z,99182.84
2022-10-15T03:51:44.539Z,99164.59
2022-10-15T03:54:14.595Z,99147.56
2022-10-15T03:56:50.660Z,99127.63
2022-10-15T03:59:31.953Z,99137.78
2022-10-15T04:02:04.212Z,99139.84
2022-10-15T04:04:36.403Z,99128.63
2022-10-15T04:07:05.973Z,99120.66
2022-10-15T04:09:36.086Z,99120.75
2022-10-15T04:12:28.503Z,99118.38
2022-10-15T04:14:58.548Z,99105.19
2022-10-15T04:17:27.866Z,99098.63
2022-10-15T04:19:58.618Z,99096.34
2022-10-15T04:22:29.177Z,99103.72
2022-10-15T04:25:02.662Z,99092.16
2022-10-15T04:27:32.194Z,99094.31
2022-10-15T04:30:09.967Z,99102.50
2022-10-15T04:32:42.812Z,99099.44
2022-10-15T04:35:14.696Z,99099.41
2022-10-15T04:38:15.821Z,99101.22
2022-10-15T04:41:06.758Z,99095.66
2022-10-15T04:43:50.098Z,99098.75
2022-10-15T04:46:20.116Z,99076.59
2022-10-15T04:48:49.679Z,99094.31
2022-10-15T04:51:22.770Z,99088.06
2022-10-15T04:54:17.825Z,99098.97
2022-10-15T04:57:06.374Z,99083.53
2022-10-15T04:59:35.697Z,99103.50
2022-10-15T05:02:25.680Z,99103.84
2022-10-15T05:05:11.030Z,99107.59
2022-10-15T05:07:51.434Z,99104.28
2022-10-15T05:10:20.876Z,99108.16
2022-10-15T05:12:55.769Z,99115.44
2022-10-15T05:15:32.363Z,99123.75
2022-10-15T05:18:01.448Z,99101.25
2022-10-15T05:20:38.573Z,99125.13
2022-10-15T05:23:13.956Z,99108.84
2022-10-15T05:25:51.676Z,99112.69
2022-10-15T05:28:25.795Z,99112.56
2022-10-15T05:30:55.132Z,99121.81
2022-10-15T05:33:24.448Z,99102.16
2022-10-15T05:35:53.975Z,99093.06
2022-10-15T05:38:26.189Z,99079.19
2022-10-15T05:40:55.440Z,99089.53
2022-10-15T05:43:27.346Z,99056.72
2022-10-15T05:45:56.638Z,99100.91
2022-10-15T05:48:25.933Z,99080.53
2022-10-15T05:50:55.640Z,99091.09
2022-10-15T05:53:30.238Z,99089.88
2022-10-15T05:56:09.347Z,99082.59
2022-10-15T05:58:38.992Z,99097.59
2022-10-15T06:01:11.412Z,99112.81
2022-10-15T06:03:41.710Z,99111.81
2022-10-15T06:06:19.278Z,99101.69
2022-10-15T06:08:50.989Z,99113.88
2022-10-15T06:11:20.952Z,99093.50
2022-10-15T06:13:50.190Z,99100.91
2022-10-15T06:16:23.572Z,99108.97
2022-10-15T06:18:54.189Z,99097.38
2022-10-15T06:21:23.449Z,99100.91
2022-10-15T06:23:53.978Z,99114.53
2022-10-15T06:26:23.251Z,99082.16
2022-10-15T06:28:52.511Z,99041.94
2022-10-15T06:31:21.845Z,99090.28
2022-10-15T06:33:51.059Z,99078.13
2022-10-15T06:36:21.810Z,99072.78
2022-10-15T06:38:50.999Z,99080.66
2022-10-15T06:41:21.530Z,99087.34
2022-10-15T06:46:20.783Z,99068.00
2022-10-15T06:48:51.949Z,99080.75
2022-10-15T06:51:21.243Z,99083.81
2022-10-15T06:53:52.725Z,99082.22
2022-10-15T06:56:23.561Z,99071.97
2022-10-15T06:58:53.153Z,99093.72
2022-10-15T07:01:22.665Z,99079.00
2022-10-15T07:03:52.538Z,99084.81
2022-10-15T07:06:21.625Z,99073.00
2022-10-15T07:08:50.825Z,99081.66
2022-10-15T07:11:20.017Z,99074.47
2022-10-15T07:13:50.612Z,99090.50
2022-10-15T07:16:19.804Z,99077.06
2022-10-15T07:18:50.072Z,99076.97
2022-10-15T07:21:19.362Z,99077.59
2022-10-15T07:23:48.570Z,99075.34
2022-10-15T07:26:17.793Z,99082.28
2022-10-15T07:28:47.160Z,99076.75
2022-10-15T07:31:17.844Z,99087.63
2022-10-15T07:33:47.156Z,99077.94
2022-10-15T07:36:16.433Z,99111.03
2022-10-15T07:38:45.598Z,99087.47
2022-10-15T07:41:15.535Z,99098.94
2022-10-15T07:43:45.921Z,99070.13
2022-10-15T07:46:16.650Z,99092.91
2022-10-15T07:48:46.001Z,99092.75
2022-10-15T07:51:15.393Z,99098.50
2022-10-15T07:53:45.190Z,99084.63
2022-10-15T07:56:16.300Z,99077.72
2022-10-15T07:58:51.770Z,99090.06
2022-10-15T08:01:23.359Z,99072.88
2022-10-15T08:03:53.013Z,99092.47
2022-10-15T08:06:22.339Z,99064.31
2022-10-15T08:08:51.673Z,99092.47
2022-10-15T08:11:20.983Z,99107.66
2022-10-15T08:13:50.345Z,99100.75
2022-10-15T08:16:20.389Z,99108.53
2022-10-15T08:19:01.425Z,99115.94
2022-10-15T08:21:30.749Z,99095.22
2022-10-15T08:24:01.060Z,99124.16
2022-10-15T08:26:35.775Z,99111.81
2022-10-15T08:29:05.224Z,99110.47
2022-10-15T08:31:34.449Z,99126.13
2022-10-15T08:34:05.133Z,99124.47
2022-10-15T08:36:34.696Z,99109.22
2022-10-15T08:39:03.948Z,99128.56
2022-10-15T08:41:39.135Z,99118.00
2022-10-15T08:44:16.329Z,99106.06
2022-10-15T08:46:50.888Z,99118.59
2022-10-15T08:49:36.351Z,99108.06
2022-10-15T08:52:17.312Z,99113.56
2022-10-15T08:54:46.833Z,99120.50
2022-10-15T08:57:31.720Z,99119.06
2022-10-15T09:00:06.707Z,99126.22
2022-10-15T09:02:43.882Z,99128.03
2022-10-15T09:05:30.380Z,99106.34
2022-10-15T09:08:08.941Z,99107.63
2022-10-15T09:10:47.616Z,99101.81
2022-10-15T09:13:27.412Z,99099.25
2022-10-15T09:16:01.530Z,99120.03
2022-10-15T09:18:35.313Z,99113.06
2022-10-15T09:21:07.216Z,99126.97
2022-10-15T09:23:37.630Z,99129.72
2022-10-15T09:26:18.545Z,99152.09
2022-10-15T09:28:54.639Z,99153.84
2022-10-15T09:31:34.363Z,99174.34
2022-10-15T09:34:14.824Z,99161.19
2022-10-15T09:36:52.006Z,99146.16
2022-10-15T09:39:44.898Z,99127.09
2022-10-15T09:42:28.629Z,99125.50
2022-10-15T09:45:02.458Z,99132.94
2022-10-15T09:47:34.884Z,99120.56
2022-10-15T09:50:07.279Z,99128.22
2022-10-15T09:52:59.481Z,99115.22
2022-10-15T09:55:38.324Z,99112.59
2022-10-15T09:58:15.827Z,99105.78
2022-10-15T10:01:04.321Z,99114.59
2022-10-15T10:03:38.365Z,99094.06
2022-10-15T10:06:11.171Z,99105.78
2022-10-15T10:08:53.662Z,99080.22
2022-10-15T10:11:25.589Z,99075.13
2022-10-15T10:13:58.352Z,99115.16
2022-10-15T10:16:30.298Z,99073.56
2022-10-15T10:19:13.879Z,99076.22
2022-10-15T10:21:46.180Z,99085.94
2022-10-15T10:24:30.773Z,99084.50
2022-10-15T10:27:01.069Z,99061.09
2022-10-15T10:29:34.419Z,99093.75
2022-10-15T10:32:14.140Z,99088.03
2022-10-15T10:34:51.519Z,99066.03
2022-10-15T10:37:22.858Z,99048.72
2022-10-15T10:40:00.133Z,99063.53
2022-10-15T10:42:34.740Z,99053.63
2022-10-15T10:45:23.237Z,99056.22
2022-10-15T10:47:52.556Z,99039.59
2022-10-15T10:50:33.630Z,99044.72
2022-10-15T10:53:25.502Z,99051.34
2022-10-15T10:55:58.710Z,99052.09
2022-10-15T10:58:31.574Z,99042.88
2022-10-15T11:01:00.877Z,99043.69
2022-10-15T11:03:36.602Z,99044.47
2022-10-15T11:06:57.471Z,99046.84
2022-10-15T11:09:52.246Z,99050.75
2022-10-15T11:12:52.370Z,99064.50
2022-10-15T11:15:42.322Z,99044.25
2022-10-15T11:18:34.212Z,99039.38
2022-10-15T11:21:19.241Z,99044.50
2022-10-15T11:24:16.129Z,99043.22
2022-10-15T11:27:11.022Z,99036.75
2022-10-15T11:29:56.343Z,99045.13
2022-10-15T11:33:06.184Z,99029.19
2022-10-15T11:35:59.537Z,99060.41
2022-10-15T11:38:39.724Z,99031.06
2022-10-15T11:41:32.307Z,99012.22
2022-10-15T11:44:26.377Z,99020.22
2022-10-15T11:47:23.459Z,99032.84
2022-10-15T11:50:14.960Z,99035.88
2022-10-15T11:53:04.229Z,99036.22
2022-10-15T11:55:42.051Z,99027.91
2022-10-15T11:58:17.953Z,99025.63
2022-10-15T12:00:53.343Z,99016.63
2022-10-15T12:03:28.303Z,98985.91
2022-10-15T12:06:02.450Z,99012.06
2022-10-15T12:08:38.547Z,99012.84
2022-10-15T12:11:35.067Z,99005.72
2022-10-15T12:14:21.605Z,98997.88
2022-10-15T12:17:05.953Z,99014.81
2022-10-15T12:19:44.432Z,98995.47
2022-10-15T12:22:14.625Z,99038.19
2022-10-15T12:24:56.534Z,99018.16
2022-10-15T12:27:34.455Z,99030.19
2022-10-15T12:30:27.951Z,99027.13
2022-10-15T12:32:57.537Z,99023.97
2022-10-15T12:35:36.684Z,99031.06
2022-10-15T12:38:24.643Z,99031.03
2022-10-15T12:41:06.423Z,99052.09
2022-10-15T12:43:40.075Z,99079.31
2022-10-15T12:46:12.341Z,99089.69
2022-10-15T12:48:44.211Z,99132.63
2022-10-15T12:51:42.106Z,99109.91
2022-10-15T12:54:40.741Z,99103.13
2022-10-15T12:57:55.532Z,99080.53
2022-10-15T13:00:44.047Z,99065.56
2022-10-15T13:03:27.032Z,99077.16
2022-10-15T13:05:56.655Z,99049.19
2022-10-15T13:08:47.003Z,99048.69
2022-10-15T13:11:23.949Z,99042.47
2022-10-15T13:13:59.703Z,99024.72
2022-10-15T13:16:29.941Z,99010.25
2022-10-15T13:19:00.619Z,99015.00
2022-10-15T13:21:54.067Z,98998.59
2022-10-15T13:24:28.171Z,98987.97
2022-10-15T13:27:01.622Z,98960.59
2022-10-15T13:29:30.979Z,98967.81
2022-10-15T13:32:01.629Z,98960.66
2022-10-15T13:34:34.787Z,98931.03
2022-10-15T13:37:05.865Z,98930.69
2022-10-15T13:39:40.418Z,98922.97
2022-10-15T13:42:16.280Z,98921.47
2022-10-15T13:44:57.185Z,98909.63
2022-10-15T13:47:33.330Z,98897.78
2022-10-15T13:50:30.826Z,98895.38
2022-10-15T13:53:16.281Z,98908.78
2022-10-15T13:55:50.828Z,98898.09
2022-10-15T13:58:26.497Z,98883.53
2022-10-15T14:01:01.500Z,98894.25
2022-10-15T14:03:31.998Z,98874.97
2022-10-15T14:06:17.919Z,98880.75
2022-10-15T14:08:49.968Z,98867.41
2022-10-15T14:11:21.801Z,98871.72
2022-10-15T14:13:53.780Z,98855.19
2022-10-15T14:16:29.277Z,98848.81
2022-10-15T14:19:09.465Z,98843.28
2022-10-15T14:21:47.294Z,98833.81
2022-10-15T14:24:21.752Z,98832.09
2022-10-15T14:26:52.511Z,98841.84
2022-10-15T14:29:28.043Z,98827.72
2022-10-15T14:31:57.583Z,98835.22
2022-10-15T14:34:38.862Z,98831.25
2022-10-15T14:37:43.160Z,98832.34
2022-10-15T14:40:23.449Z,98831.34
2022-10-15T14:43:05.549Z,98835.47
2022-10-15T14:45:42.681Z,98827.66
2022-10-15T14:48:20.076Z,98815.44
2022-10-15T14:50:49.335Z,98820.41
2022-10-15T14:53:25.801Z,98826.34
2022-10-15T14:55:59.896Z,98842.44
2022-10-15T14:58:31.928Z,98830.47
2022-10-15T15:01:03.868Z,98823.38
2022-10-15T15:03:42.133Z,98802.84
2022-10-15T15:06:12.092Z,98839.72
2022-10-15T15:08:41.251Z,98818.66
2022-10-15T15:11:17.193Z,98819.91
2022-10-15T15:13:48.680Z,98807.31
2022-10-15T15:16:19.257Z,98818.72
2022-10-15T15:18:48.989Z,98813.31
2022-10-15T15:21:23.721Z,98808.63
2022-10-15T15:23:53.093Z,98835.16
2022-10-15T15:26:22.785Z,98840.28
2022-10-15T15:28:53.838Z,98815.09
2022-10-15T15:31:23.135Z,98863.44
2022-10-15T15:33:52.350Z,98822.94
2022-10-15T15:36:23.804Z,98818.97
2022-10-15T15:38:58.637Z,98824.44
2022-10-15T15:41:28.398Z,98811.81
2022-10-15T15:44:00.425Z,98806.97
2022-10-15T15:46:30.100Z,98804.13
2022-10-15T15:49:00.004Z,98784.38
2022-10-15T15:51:32.370Z,98790.25
2022-10-15T15:54:04.713Z,98790.09
2022-10-15T15:56:35.076Z,98779.84
2022-10-15T15:59:06.002Z,98798.69
2022-10-15T16:01:35.233Z,98785.78
2022-10-15T16:04:04.436Z,98768.00
2022-10-15T16:06:33.704Z,98787.41
2022-10-15T16:09:02.919Z,98780.00
2022-10-15T16:11:32.387Z,98790.16
2022-10-15T16:14:03.714Z,98824.38
2022-10-15T16:16:37.337Z,98780.69
2022-10-15T16:19:07.466Z,98789.28
2022-10-15T16:21:36.685Z,98782.91
2022-10-15T16:24:07.109Z,98795.44
2022-10-15T16:26:36.355Z,98778.09
2022-10-15T16:29:05.647Z,98776.47
2022-10-15T16:31:37.216Z,98790.13
2022-10-15T16:34:06.560Z,98784.63
2022-10-15T16:36:36.177Z,98784.16
2022-10-15T16:39:05.938Z,98788.13
2022-10-15T16:41:35.337Z,98780.63
2022-10-15T16:44:04.632Z,98791.38
2022-10-15T16:46:35.217Z,98790.50
2022-10-15T16:49:04.739Z,98797.84
2022-10-15T16:51:35.596Z,98804.81
2022-10-15T16:54:06.444Z,98799.72
2022-10-15T16:56:35.634Z,98811.56
2022-10-15T16:59:04.964Z,98805.19
2022-10-15T17:01:36.194Z,98790.94
2022-10-15T17:04:05.889Z,98794.91
2022-10-15T17:06:35.160Z,98781.56
2022-10-15T17:09:05.168Z,98808.22
2022-10-15T17:11:37.628Z,98805.38
2022-10-15T17:14:10.999Z,98817.75
2022-10-15T17:16:44.339Z,98793.06
2022-10-15T17:19:19.536Z,98801.56
2022-10-15T17:21:49.183Z,98807.47
2022-10-15T17:24:20.596Z,98803.34
2022-10-15T17:26:50.338Z,98798.31
2022-10-15T17:29:23.332Z,98800.69
2022-10-15T17:31:54.333Z,98799.09
2022-10-15T17:34:23.645Z,98802.97
2022-10-15T17:36:54.040Z,98812.38
2022-10-15T17:39:23.655Z,98836.56
2022-10-15T17:41:53.369Z,98818.38
2022-10-15T17:44:22.944Z,98824.31
2022-10-15T17:46:54.107Z,98830.50
2022-10-15T17:49:30.384Z,98796.06
2022-10-15T17:51:59.870Z,98832.34
2022-10-15T17:54:29.199Z,98821.38
2022-10-15T17:56:58.448Z,98845.53
2022-10-15T17:59:27.666Z,98829.50
2022-10-15T18:02:00.984Z,98824.03
2022-10-15T18:04:32.062Z,98822.78
2022-10-15T18:07:01.413Z,98840.25
2022-10-15T18:09:30.910Z,98826.59
2022-10-15T18:12:02.148Z,98824.97
2022-10-15T18:14:33.763Z,98832.75
2022-10-15T18:17:04.955Z,98820.97
2022-10-15T18:19:34.158Z,98828.03
2022-10-15T18:22:03.523Z,98820.59
2022-10-15T18:24:33.213Z,98843.53
2022-10-15T18:27:07.124Z,98808.47
2022-10-15T18:29:36.634Z,98830.25
2022-10-15T18:32:07.725Z,98832.13
2022-10-15T18:34:37.023Z,98831.06
2022-10-15T18:37:06.456Z,98837.94
2022-10-15T18:39:35.814Z,98827.78
2022-10-15T18:42:05.167Z,98845.75
2022-10-15T18:44:34.758Z,98837.34
2022-10-15T18:47:04.129Z,98847.44
2022-10-15T18:49:38.898Z,98837.88
2022-10-15T18:52:21.516Z,98847.59
2022-10-15T18:54:57.538Z,98848.13
2022-10-15T18:57:26.909Z,98855.22
2022-10-15T18:59:56.383Z,98844.78
2022-10-15T19:02:25.910Z,98869.19
2022-10-15T19:04:56.933Z,98890.97
2022-10-15T19:07:26.916Z,98867.44
2022-10-15T19:10:00.688Z,98878.25
2022-10-15T19:12:30.282Z,98879.59
2022-10-15T19:14:59.526Z,98875.09
2022-10-15T19:17:29.918Z,98884.59
2022-10-15T19:20:00.493Z,98875.09
2022-10-15T19:22:30.543Z,98891.63
2022-10-15T19:25:00.541Z,98893.59
2022-10-15T19:27:29.650Z,98904.22
2022-10-15T19:29:58.862Z,98902.78
2022-10-15T19:32:28.282Z,98890.31
2022-10-15T19:34:57.656Z,98902.41
2022-10-15T19:37:28.615Z,98905.94
2022-10-15T19:39:57.929Z,98892.00
2022-10-15T19:42:30.481Z,98904.66
2022-10-15T19:44:59.908Z,98899.88
2022-10-15T19:47:29.298Z,98919.38
2022-10-15T19:49:58.678Z,98899.66
2022-10-15T19:52:29.431Z,98894.44
2022-10-15T19:54:58.570Z,98897.78
2022-10-15T19:57:28.091Z,98911.75
2022-10-15T19:59:57.428Z,98930.13
2022-10-15T20:02:27.195Z,98935.63
2022-10-15T20:04:56.329Z,98932.97
2022-10-15T20:07:25.906Z,98932.50
2022-10-15T20:09:56.769Z,98941.69
2022-10-15T20:12:26.114Z,98939.09
2022-10-15T20:14:55.305Z,98941.59
2022-10-15T20:17:24.925Z,98952.53
2022-10-15T20:19:54.613Z,98947.81
2022-10-15T20:22:24.148Z,98946.22
2022-10-15T20:24:53.957Z,98967.53
2022-10-15T20:27:25.369Z,98959.75
2022-10-15T20:29:54.683Z,98970.13
2022-10-15T20:32:34.149Z,98980.22
2022-10-15T20:35:05.892Z,98971.94
2022-10-15T20:37:35.103Z,98978.22
2022-10-15T20:40:05.112Z,98995.34
2022-10-15T20:42:37.812Z,98998.00
2022-10-15T20:45:08.071Z,98997.22
2022-10-15T20:47:42.189Z,99007.59
2022-10-15T20:50:18.300Z,99011.00
2022-10-15T20:52:48.868Z,98989.31
2022-10-15T20:55:18.729Z,99040.34
2022-10-15T20:57:49.616Z,99042.34
2022-10-15T21:00:18.852Z,99026.41
2022-10-15T21:02:48.054Z,99038.09
2022-10-15T21:05:17.579Z,99052.28
2022-10-15T21:07:46.819Z,99042.63
2022-10-15T21:10:16.376Z,99032.75
2022-10-15T21:12:45.857Z,99049.34
2022-10-15T21:15:16.830Z,99065.91
2022-10-15T21:17:46.070Z,99106.63
2022-10-15T21:20:15.440Z,99082.47
2022-10-15T21:22:44.700Z,99090.63
2022-10-15T21:25:13.952Z,99088.88
2022-10-15T21:27:43.145Z,99098.63
2022-10-15T21:30:13.379Z,99102.34
2022-10-15T21:32:44.053Z,99122.28
2022-10-15T21:35:13.236Z,99135.75
2022-10-15T21:37:42.520Z,99151.44
2022-10-15T21:40:13.412Z,99161.75
2022-10-15T21:42:42.561Z,99170.41
2022-10-15T21:45:12.660Z,99168.56
2022-10-15T21:47:43.269Z,99162.19
2022-10-15T21:50:12.582Z,99173.56
2022-10-15T21:52:42.019Z,99191.03
2022-10-15T21:55:11.506Z,99184.25
2022-10-15T21:57:40.728Z,99197.63
2022-10-15T22:00:16.241Z,99204.34
2022-10-15T22:02:51.703Z,99199.31
2022-10-15T22:05:20.892Z,99215.41
2022-10-15T22:07:50.140Z,99220.88
2022-10-15T22:10:19.534Z,99230.53
2022-10-15T22:12:53.574Z,99239.31
2022-10-15T22:15:22.806Z,99233.88
2022-10-15T22:17:53.486Z,99238.69
2022-10-15T22:20:23.948Z,99244.94
2022-10-15T22:22:55.274Z,99244.81
2022-10-15T22:25:24.571Z,99277.03
2022-10-15T22:27:54.297Z,99272.72
2022-10-15T22:30:23.557Z,99293.13
2022-10-15T22:32:54.903Z,99294.16
2022-10-15T22:35:24.182Z,99305.78
2022-10-15T22:37:55.339Z,99315.13
2022-10-15T22:40:24.658Z,99313.78
2022-10-15T22:42:53.855Z,99330.66
2022-10-15T22:45:23.157Z,99325.63
2022-10-15T22:47:53.917Z,99325.97
2022-10-15T22:50:23.606Z,99335.97
2022-10-15T22:52:52.879Z,99338.38
2022-10-15T22:55:22.069Z,99328.84
2022-10-15T22:57:52.462Z,99334.53
2022-10-15T23:00:22.173Z,99334.16
2022-10-15T23:02:51.501Z,99341.13
2022-10-15T23:05:22.232Z,99340.88
2022-10-15T23:07:51.479Z,99360.81
2022-10-15T23:10:20.726Z,99375.03
2022-10-15T23:12:49.998Z,99372.19
2022-10-15T23:15:19.377Z,99384.34
2022-10-15T23:17:48.639Z,99385.53
2022-10-15T23:20:17.843Z,99392.09
2022-10-15T23:22:48.638Z,99399.50
2022-10-15T23:25:17.913Z,99409.75
2022-10-15T23:27:47.133Z,99419.09
2022-10-15T23:30:24.624Z,99413.16
2022-10-15T23:32:54.332Z,99421.44
2022-10-15T23:35:23.574Z,99420.53
2022-10-15T23:37:54.430Z,99430.88
2022-10-15T23:40:23.581Z,99443.63
2022-10-15T23:42:52.979Z,99437.28
2022-10-15T23:45:22.359Z,99451.88
2022-10-15T23:47:51.736Z,99455.72
2022-10-15T23:50:21.429Z,99459.28
2022-10-15T23:52:50.681Z,99465.75
2022-10-15T23:55:21.264Z,99456.84
2022-10-15T23:57:50.911Z,99467.88
